Time;durP1;ratioP1;P1;durP2;ratioP2;P2;SDS_P1;SDS_P2;PMS_P1;PMS_P2;Temp;Humidity;BMP_temperature;BMP_pressure;BME280_temperature;BME280_humidity;BME280_pressure;Samples;Min_cycle;Max_cycle;Signal;HPM_P1;HPM_P2
2022/09/22 00:01:08;;;;;;;2.20;1.50;;;11.10;99.90;;;;;;5076231;28;20216;-70
2022/09/22 00:03:41;;;;;;;2.40;1.43;;;11.10;99.90;;;;;;5081104;28;20182;-73
2022/09/22 00:06:10;;;;;;;1.80;1.37;;;11.10;99.90;;;;;;5078937;28;20180;-73
2022/09/22 00:08:44;;;;;;;2.47;1.83;;;11.10;99.90;;;;;;5066227;28;20241;-72
2022/09/22 00:11:19;;;;;;;2.30;1.40;;;11.00;99.90;;;;;;5079529;28;20337;-69
2022/09/22 00:13:49;;;;;;;1.93;1.27;;;11.00;99.90;;;;;;5062602;28;20172;-72
2022/09/22 00:16:14;;;;;;;2.13;1.40;;;11.00;99.90;;;;;;5068890;28;20188;-72
2022/09/22 00:18:40;;;;;;;2.40;1.60;;;11.00;99.90;;;;;;5066158;28;20275;-72
2022/09/22 00:21:14;;;;;;;3.47;1.40;;;10.90;99.90;;;;;;5074989;28;20202;-72
2022/09/22 00:23:43;;;;;;;1.67;1.27;;;10.90;99.90;;;;;;5064381;28;20242;-72
2022/09/22 00:26:14;;;;;;;3.27;1.63;;;10.90;99.90;;;;;;5079383;28;20220;-72
2022/09/22 00:28:41;;;;;;;2.43;1.50;;;10.80;99.90;;;;;;5079897;28;20267;-72
2022/09/22 00:31:11;;;;;;;2.60;1.37;;;10.80;99.90;;;;;;5067072;28;20169;-71
2022/09/22 00:33:38;;;;;;;2.13;1.40;;;10.80;99.90;;;;;;5072594;28;20180;-72
2022/09/22 00:36:04;;;;;;;1.73;1.30;;;10.70;99.90;;;;;;5069068;28;20203;-72
2022/09/22 00:38:33;;;;;;;2.37;1.40;;;10.70;99.90;;;;;;5065784;28;20196;-65
2022/09/22 00:41:04;;;;;;;2.07;1.37;;;10.70;99.90;;;;;;5072445;28;20225;-72
2022/09/22 00:43:33;;;;;;;2.47;1.30;;;10.70;99.90;;;;;;5081188;28;20196;-74
2022/09/22 00:46:07;;;;;;;1.97;1.50;;;10.70;99.90;;;;;;5068619;28;20361;-74
2022/09/22 00:48:38;;;;;;;2.33;1.40;;;10.70;99.90;;;;;;5083854;28;20172;-75
2022/09/22 00:51:08;;;;;;;2.10;1.47;;;10.60;99.90;;;;;;5081868;28;20199;-75
2022/09/22 00:53:34;;;;;;;1.80;1.37;;;10.60;99.90;;;;;;5082395;28;20179;-75
2022/09/22 00:56:11;;;;;;;2.73;1.40;;;10.60;99.90;;;;;;5075208;28;20337;-74
2022/09/22 00:58:54;;;;;;;1.97;1.30;;;10.60;99.90;;;;;;5085029;28;20186;-73
2022/09/22 01:01:21;;;;;;;2.73;1.33;;;10.50;99.90;;;;;;5080982;28;20797;-74
2022/09/22 01:03:48;;;;;;;2.60;1.43;;;10.40;99.90;;;;;;5067080;28;20198;-75
2022/09/22 01:06:17;;;;;;;1.60;1.30;;;10.40;99.90;;;;;;5072317;28;20168;-74
2022/09/22 01:08:46;;;;;;;1.97;1.10;;;10.40;99.90;;;;;;5079517;28;20175;-73
2022/09/22 01:11:17;;;;;;;4.57;1.53;;;10.30;99.90;;;;;;5073059;28;20255;-75
2022/09/22 01:14:20;;;;;;;2.00;1.23;;;10.30;99.90;;;;;;5076326;28;20233;-74
2022/09/22 01:16:49;;;;;;;2.10;1.40;;;10.40;99.90;;;;;;5063819;28;20207;-74
2022/09/22 01:19:48;;;;;;;2.23;1.53;;;10.30;99.90;;;;;;5074722;28;20163;-73
2022/09/22 01:22:46;;;;;;;1.73;1.33;;;10.30;99.90;;;;;;5080269;28;20187;-74
2022/09/22 01:25:41;;;;;;;3.90;1.50;;;10.20;99.90;;;;;;5073320;28;20204;-74
2022/09/22 01:28:31;;;;;;;1.50;1.30;;;10.20;99.90;;;;;;5076695;28;20191;-73
2022/09/22 01:31:13;;;;;;;2.43;1.50;;;10.20;99.90;;;;;;5109944;28;20254;-74
2022/09/22 01:34:12;;;;;;;1.50;1.30;;;10.20;99.90;;;;;;5079574;28;20195;-75
2022/09/22 01:37:04;;;;;;;1.83;1.33;;;10.20;99.90;;;;;;5072694;28;20197;-74
2022/09/22 01:39:43;;;;;;;1.53;1.10;;;10.20;99.90;;;;;;5073876;28;20176;-72
2022/09/22 01:42:35;;;;;;;1.90;1.30;;;10.20;99.90;;;;;;5062552;28;20177;-74
2022/09/22 01:45:09;;;;;;;3.87;1.43;;;10.20;99.90;;;;;;5077276;28;20175;-74
2022/09/22 01:47:57;;;;;;;1.20;1.10;;;10.20;99.90;;;;;;5072381;28;20176;-73
2022/09/22 01:50:28;;;;;;;1.40;1.20;;;10.20;99.90;;;;;;5077467;28;20172;-74
2022/09/22 01:53:04;;;;;;;1.80;1.40;;;10.10;99.90;;;;;;5077456;28;20191;-74
2022/09/22 01:55:34;;;;;;;1.80;1.10;;;10.20;99.90;;;;;;5078834;28;20214;-74
2022/09/22 01:58:14;;;;;;;2.07;1.27;;;10.20;99.90;;;;;;5075609;28;20205;-74
2022/09/22 02:00:46;;;;;;;1.80;1.23;;;10.20;99.90;;;;;;5085609;28;20259;-73
2022/09/22 02:03:25;;;;;;;1.37;1.23;;;10.20;99.90;;;;;;5064306;28;20309;-74
2022/09/22 02:06:05;;;;;;;2.13;1.30;;;10.10;99.90;;;;;;5079117;28;20180;-75
2022/09/22 02:08:43;;;;;;;1.50;1.13;;;10.10;99.90;;;;;;5078825;28;20183;-74
2022/09/22 02:11:15;;;;;;;1.57;1.10;;;10.10;99.90;;;;;;5068800;28;20211;-75
2022/09/22 02:13:48;;;;;;;1.47;1.10;;;10.10;99.90;;;;;;5078871;28;20168;-74
2022/09/22 02:16:16;;;;;;;1.93;1.30;;;10.10;99.90;;;;;;5075719;28;20172;-75
2022/09/22 02:18:41;;;;;;;2.80;1.30;;;10.10;99.90;;;;;;5075881;28;20291;-73
2022/09/22 02:21:09;;;;;;;1.87;1.17;;;10.00;99.90;;;;;;5080217;28;20195;-74
2022/09/22 02:23:34;;;;;;;2.17;1.30;;;10.00;99.90;;;;;;5079864;28;20178;-75
2022/09/22 02:26:03;;;;;;;1.60;1.40;;;10.00;99.90;;;;;;5067762;28;20282;-74
2022/09/22 02:28:31;;;;;;;3.23;1.10;;;10.00;99.90;;;;;;5078084;28;20180;-73
2022/09/22 02:31:00;;;;;;;1.53;1.30;;;9.90;99.90;;;;;;5079564;28;20377;-74
2022/09/22 02:33:27;;;;;;;2.57;1.40;;;9.90;99.90;;;;;;5072636;28;20208;-74
2022/09/22 02:36:17;;;;;;;1.73;1.40;;;9.90;99.90;;;;;;5064317;28;20350;-75
2022/09/22 02:38:58;;;;;;;2.80;1.60;;;9.90;99.90;;;;;;5080138;28;20207;-74
2022/09/22 02:41:35;;;;;;;2.00;1.40;;;9.90;99.90;;;;;;5079931;28;20195;-75
2022/09/22 02:44:19;;;;;;;1.97;1.50;;;9.90;99.90;;;;;;5062218;28;20172;-74
2022/09/22 02:47:11;;;;;;;3.80;1.83;;;9.90;99.90;;;;;;5078050;28;20175;-74
2022/09/22 02:49:37;;;;;;;2.13;1.60;;;9.90;99.90;;;;;;5088105;28;20283;-75
2022/09/22 02:52:09;;;;;;;3.00;1.67;;;9.80;99.90;;;;;;5081107;28;20262;-74
2022/09/22 02:54:35;;;;;;;4.50;2.00;;;9.80;99.90;;;;;;5075920;28;20271;-72
2022/09/22 02:57:01;;;;;;;2.10;1.67;;;9.80;99.90;;;;;;5079279;28;20487;-73
2022/09/22 02:59:27;;;;;;;2.37;1.70;;;9.80;99.90;;;;;;5078053;28;20187;-74
2022/09/22 03:01:54;;;;;;;2.40;1.80;;;9.80;99.90;;;;;;5078882;28;20248;-74
2022/09/22 03:04:20;;;;;;;3.37;1.70;;;9.80;99.90;;;;;;5069507;28;20180;-75
2022/09/22 03:06:45;;;;;;;2.30;1.57;;;9.70;99.90;;;;;;5065588;28;20177;-74
2022/09/22 03:09:11;;;;;;;1.57;1.47;;;9.70;99.90;;;;;;5094637;28;20180;-74
2022/09/22 03:11:39;;;;;;;2.60;1.67;;;9.70;99.90;;;;;;5083508;28;20341;-74
2022/09/22 03:14:07;;;;;;;2.50;1.60;;;9.70;99.90;;;;;;5077633;28;20168;-74
2022/09/22 03:16:33;;;;;;;1.63;1.30;;;9.70;99.90;;;;;;5078601;28;20209;-73
2022/09/22 03:18:59;;;;;;;1.70;1.37;;;9.70;99.90;;;;;;5061355;28;20238;-75
2022/09/22 03:21:24;;;;;;;1.63;1.40;;;9.70;99.90;;;;;;5056771;28;20205;-74
2022/09/22 03:23:50;;;;;;;1.60;1.43;;;9.70;99.90;;;;;;5058442;28;20191;-75
2022/09/22 03:26:16;;;;;;;1.93;1.60;;;9.70;99.90;;;;;;5074741;28;20184;-74
2022/09/22 03:28:44;;;;;;;1.90;1.27;;;9.70;99.90;;;;;;5075651;28;20251;-72
2022/09/22 03:31:10;;;;;;;2.97;1.43;;;9.70;99.90;;;;;;5059031;28;20177;-74
2022/09/22 03:33:37;;;;;;;2.03;1.53;;;9.70;99.90;;;;;;5071783;28;20173;-75
2022/09/22 03:36:03;;;;;;;2.43;1.57;;;9.70;99.90;;;;;;5090687;28;20207;-75
2022/09/22 03:38:28;;;;;;;4.93;1.80;;;9.60;99.90;;;;;;5094944;28;20186;-75
2022/09/22 03:40:57;;;;;;;3.30;1.67;;;9.60;99.90;;;;;;5069976;28;20180;-75
2022/09/22 03:43:23;;;;;;;2.03;1.57;;;9.60;99.90;;;;;;5075181;28;20393;-75
2022/09/22 03:45:58;;;;;;;2.60;1.73;;;9.60;99.90;;;;;;5073524;28;20213;-74
2022/09/22 03:48:25;;;;;;;2.77;1.60;;;9.60;99.90;;;;;;5077568;28;20210;-74
2022/09/22 03:50:56;;;;;;;2.47;1.80;;;9.60;99.90;;;;;;5095496;28;20180;-74
2022/09/22 03:53:23;;;;;;;2.67;1.77;;;9.60;99.90;;;;;;5064896;28;20169;-75
2022/09/22 03:55:50;;;;;;;2.87;1.80;;;9.60;99.90;;;;;;5065885;28;20219;-75
2022/09/22 03:58:15;;;;;;;2.10;1.90;;;9.60;99.90;;;;;;5080013;28;20171;-75
2022/09/22 04:00:46;;;;;;;3.87;1.73;;;9.50;99.90;;;;;;5075388;28;20189;-74
2022/09/22 04:03:14;;;;;;;3.30;1.80;;;9.50;99.90;;;;;;5096186;28;20267;-74
2022/09/22 04:05:48;;;;;;;2.83;2.10;;;9.50;99.90;;;;;;5073945;28;20192;-76
2022/09/22 04:08:16;;;;;;;2.20;1.80;;;9.50;99.90;;;;;;5061451;28;20176;-76
2022/09/22 04:10:45;;;;;;;2.33;2.00;;;9.50;99.90;;;;;;5059633;28;20227;-76
2022/09/22 04:13:14;;;;;;;3.00;2.00;;;9.50;99.90;;;;;;5060516;28;20238;-73
2022/09/22 04:15:40;;;;;;;3.50;2.40;;;9.40;99.90;;;;;;5075013;28;20195;-75
2022/09/22 04:18:06;;;;;;;3.53;2.13;;;9.40;99.90;;;;;;5075559;28;20164;-75
2022/09/22 04:20:36;;;;;;;2.60;1.80;;;9.40;99.90;;;;;;5069377;28;20174;-75
2022/09/22 04:23:05;;;;;;;3.27;1.90;;;9.40;99.90;;;;;;5093172;28;20175;-75
2022/09/22 04:25:31;;;;;;;4.37;2.03;;;9.40;99.90;;;;;;5075692;28;20199;-73
2022/09/22 04:27:57;;;;;;;2.87;1.90;;;9.40;99.90;;;;;;5083071;28;20176;-76
2022/09/22 04:30:23;;;;;;;3.90;2.13;;;9.40;99.90;;;;;;5075951;28;20516;-74
2022/09/22 04:32:48;;;;;;;3.60;1.90;;;9.40;99.90;;;;;;5063109;28;20190;-76
2022/09/22 04:35:14;;;;;;;2.00;1.60;;;9.40;99.90;;;;;;5062816;28;20188;-76
2022/09/22 04:37:41;;;;;;;2.37;1.83;;;9.40;99.90;;;;;;5058842;28;20250;-76
2022/09/22 04:40:10;;;;;;;2.53;1.80;;;9.30;99.90;;;;;;5045932;28;20188;-76
2022/09/22 04:42:39;;;;;;;2.60;2.00;;;9.30;99.90;;;;;;5065913;28;20386;-76
2022/09/22 04:45:05;;;;;;;3.07;1.80;;;9.40;99.90;;;;;;5067634;28;20296;-75
2022/09/22 04:47:32;;;;;;;2.67;1.83;;;9.30;99.90;;;;;;5079043;28;20172;-76
2022/09/22 04:49:58;;;;;;;3.47;1.90;;;9.30;99.90;;;;;;5064606;28;20275;-76
2022/09/22 04:52:24;;;;;;;3.10;1.73;;;9.30;99.90;;;;;;5066398;28;20223;-74
2022/09/22 04:54:52;;;;;;;7.53;2.00;;;9.20;99.90;;;;;;5066926;28;20228;-76
2022/09/22 04:57:18;;;;;;;2.57;1.90;;;9.20;99.90;;;;;;5078360;28;20212;-75
2022/09/22 04:59:43;;;;;;;3.47;1.87;;;9.20;99.90;;;;;;5079685;28;20196;-75
2022/09/22 05:02:13;;;;;;;2.30;1.80;;;9.20;99.90;;;;;;5075330;28;20217;-76
2022/09/22 05:04:39;;;;;;;2.20;1.63;;;9.20;99.90;;;;;;5062276;28;20184;-76
2022/09/22 05:07:09;;;;;;;4.37;2.97;;;9.30;99.90;;;;;;5072410;28;20291;-75
2022/09/22 05:09:40;;;;;;;4.00;2.27;;;9.20;99.90;;;;;;5060519;28;20259;-75
2022/09/22 05:12:08;;;;;;;3.27;2.20;;;9.20;99.90;;;;;;5068928;28;20263;-75
2022/09/22 05:14:36;;;;;;;2.30;2.00;;;9.20;99.90;;;;;;5064106;28;20239;-75
2022/09/22 05:17:01;;;;;;;4.60;2.03;;;9.20;99.90;;;;;;5078924;28;20200;-74
2022/09/22 05:19:29;;;;;;;2.70;2.27;;;9.10;99.90;;;;;;5079579;28;20179;-75
2022/09/22 05:21:57;;;;;;;2.60;2.10;;;9.10;99.90;;;;;;5065094;28;20180;-76
2022/09/22 05:24:25;;;;;;;3.07;1.93;;;9.10;99.90;;;;;;5068212;28;20185;-75
2022/09/22 05:26:50;;;;;;;3.17;2.10;;;9.10;99.90;;;;;;5077402;28;20243;-75
2022/09/22 05:29:17;;;;;;;3.53;1.90;;;9.10;99.90;;;;;;5083414;28;20282;-75
2022/09/22 05:31:43;;;;;;;3.10;2.00;;;9.10;99.90;;;;;;5083620;28;20181;-76
2022/09/22 05:34:11;;;;;;;2.57;1.73;;;9.10;99.90;;;;;;5087074;28;20185;-74
2022/09/22 05:36:39;;;;;;;2.63;1.90;;;9.00;99.90;;;;;;5091183;28;20202;-76
2022/09/22 05:39:07;;;;;;;2.90;1.80;;;9.00;99.90;;;;;;5082311;28;20168;-75
2022/09/22 05:41:33;;;;;;;3.57;2.10;;;9.00;99.90;;;;;;5076734;28;20177;-71
2022/09/22 05:43:58;;;;;;;4.73;2.90;;;9.00;99.90;;;;;;5082806;28;20178;-75
2022/09/22 05:46:26;;;;;;;4.03;2.77;;;9.00;99.90;;;;;;5075097;28;20190;-74
2022/09/22 05:48:54;;;;;;;4.97;2.80;;;9.00;99.90;;;;;;5075651;28;20180;-74
2022/09/22 05:51:22;;;;;;;3.93;2.77;;;9.00;99.90;;;;;;5061461;28;20242;-75
2022/09/22 05:53:48;;;;;;;4.33;2.80;;;9.00;99.90;;;;;;5061539;28;20180;-76
2022/09/22 05:56:13;;;;;;;4.33;2.70;;;9.00;99.90;;;;;;5067117;28;20192;-74
2022/09/22 05:58:39;;;;;;;4.37;2.60;;;9.00;99.90;;;;;;5078190;28;20185;-76
2022/09/22 06:01:05;;;;;;;3.27;2.37;;;9.00;99.90;;;;;;5081651;28;20191;-76
2022/09/22 06:03:30;;;;;;;3.60;2.70;;;9.00;99.90;;;;;;5073034;28;20172;-76
2022/09/22 06:05:56;;;;;;;4.57;2.83;;;9.10;99.90;;;;;;5063287;28;20196;-75
2022/09/22 06:08:22;;;;;;;5.47;3.40;;;9.10;99.90;;;;;;5081117;28;20171;-75
2022/09/22 06:10:50;;;;;;;8.47;5.40;;;9.10;99.90;;;;;;5077675;28;20218;-75
2022/09/22 06:13:20;;;;;;;20.50;13.33;;;9.20;99.90;;;;;;5075965;28;20172;-75
2022/09/22 06:15:49;;;;;;;11.87;7.70;;;9.20;99.90;;;;;;5082466;28;20198;-75
2022/09/22 06:18:19;;;;;;;8.60;6.00;;;9.20;99.90;;;;;;5074814;28;20219;-75
2022/09/22 06:20:48;;;;;;;6.73;4.87;;;9.30;99.90;;;;;;5083905;28;20168;-75
2022/09/22 06:23:14;;;;;;;6.67;4.60;;;9.30;99.90;;;;;;5062589;28;20216;-74
2022/09/22 06:25:41;;;;;;;5.17;3.77;;;9.30;99.90;;;;;;5072870;28;20175;-75
2022/09/22 06:28:13;;;;;;;5.60;4.23;;;9.30;99.90;;;;;;5065952;28;20183;-75
2022/09/22 06:30:39;;;;;;;7.13;4.33;;;9.40;99.90;;;;;;5067353;28;20353;-73
2022/09/22 06:33:08;;;;;;;6.00;4.10;;;9.40;99.90;;;;;;5078663;28;20187;-75
2022/09/22 06:35:36;;;;;;;8.17;4.60;;;9.40;99.90;;;;;;5084137;28;20222;-75
2022/09/22 06:38:05;;;;;;;6.23;4.23;;;9.50;99.90;;;;;;5081637;28;20187;-73
2022/09/22 06:40:35;;;;;;;6.60;4.70;;;9.50;99.90;;;;;;5079423;28;20203;-75
2022/09/22 06:43:10;;;;;;;6.73;4.57;;;9.40;99.90;;;;;;5077191;28;20164;-75
2022/09/22 06:45:37;;;;;;;6.47;4.73;;;9.50;99.90;;;;;;5057954;28;20172;-74
2022/09/22 06:48:05;;;;;;;6.20;4.20;;;9.60;99.90;;;;;;5080527;28;20210;-75
2022/09/22 06:50:31;;;;;;;5.77;4.30;;;9.70;99.90;;;;;;5069827;28;20186;-76
2022/09/22 06:52:59;;;;;;;5.07;4.10;;;9.70;99.90;;;;;;5063141;28;20238;-74
2022/09/22 06:55:30;;;;;;;5.33;4.20;;;9.70;99.90;;;;;;5084941;28;20207;-75
2022/09/22 06:57:57;;;;;;;5.20;4.00;;;9.90;99.90;;;;;;5078492;28;20199;-74
2022/09/22 07:00:27;;;;;;;6.00;3.87;;;9.80;99.90;;;;;;5079993;28;20180;-76
2022/09/22 07:03:10;;;;;;;8.17;3.90;;;9.90;99.90;;;;;;5080831;28;20175;-74
2022/09/22 07:05:36;;;;;;;6.40;4.03;;;9.90;99.90;;;;;;5080701;28;20188;-76
2022/09/22 07:08:07;;;;;;;4.43;3.73;;;10.00;99.90;;;;;;5074130;28;20180;-75
2022/09/22 07:10:36;;;;;;;4.77;3.63;;;10.00;99.90;;;;;;5083850;28;20233;-76
2022/09/22 07:13:04;;;;;;;5.57;3.80;;;10.10;99.90;;;;;;5084357;28;20202;-77
2022/09/22 07:15:34;;;;;;;5.53;3.60;;;10.20;99.90;;;;;;5080719;28;20204;-76
2022/09/22 07:18:00;;;;;;;4.50;3.57;;;10.20;99.90;;;;;;5075089;28;20200;-76
2022/09/22 07:20:27;;;;;;;5.87;3.93;;;10.30;99.90;;;;;;5075367;28;20235;-77
2022/09/22 07:22:59;;;;;;;5.83;4.27;;;10.30;99.90;;;;;;5084464;28;20172;-77
2022/09/22 07:25:27;;;;;;;6.47;3.97;;;10.40;99.90;;;;;;5072731;28;20310;-76
2022/09/22 07:27:57;;;;;;;6.10;3.63;;;10.50;99.90;;;;;;5072781;28;20164;-76
2022/09/22 07:30:25;;;;;;;7.17;4.30;;;10.50;99.90;;;;;;5083042;28;20186;-75
2022/09/22 07:32:53;;;;;;;5.07;3.77;;;10.60;99.90;;;;;;5072477;28;20222;-75
2022/09/22 07:35:19;;;;;;;5.47;3.87;;;10.70;99.90;;;;;;5081178;28;20308;-75
2022/09/22 07:37:45;;;;;;;6.33;3.80;;;10.70;99.90;;;;;;5086789;28;20216;-77
2022/09/22 07:40:11;;;;;;;7.53;4.03;;;10.80;99.90;;;;;;5087138;28;20266;-76
2022/09/22 07:42:36;;;;;;;4.47;3.37;;;10.80;99.90;;;;;;5073988;28;20176;-76
2022/09/22 07:45:14;;;;;;;5.17;3.77;;;11.00;99.90;;;;;;5062766;28;20242;-76
2022/09/22 07:50:29;;;;;;;4.65;3.22;;;11.20;99.90;;;;;;5086806;28;20211;-77
2022/09/22 07:52:55;;;;;;;5.32;3.85;;;11.20;99.90;;;;;;5088348;28;20183;-77
2022/09/22 07:55:24;;;;;;;5.57;3.90;;;11.30;99.90;;;;;;5071066;28;20213;-77
2022/09/22 07:57:58;;;;;;;5.53;3.55;;;11.40;99.90;;;;;;5062135;28;20295;-77
2022/09/22 08:00:28;;;;;;;4.60;3.55;;;11.40;99.90;;;;;;5082556;28;20184;-76
2022/09/22 08:02:55;;;;;;;4.82;3.45;;;11.50;99.90;;;;;;5075534;28;20179;-77
2022/09/22 08:05:24;;;;;;;6.05;3.75;;;11.60;99.90;;;;;;5086348;28;20171;-75
2022/09/22 08:07:54;;;;;;;4.13;3.55;;;11.70;99.90;;;;;;5087876;28;20200;-78
2022/09/22 08:10:21;;;;;;;4.38;3.38;;;11.80;99.90;;;;;;5087547;28;20190;-77
2022/09/22 08:12:50;;;;;;;4.30;3.47;;;11.90;99.90;;;;;;5082853;28;20192;-76
2022/09/22 08:15:21;;;;;;;4.82;3.05;;;11.90;99.90;;;;;;5065331;28;20196;-76
2022/09/22 08:17:47;;;;;;;4.95;3.50;;;12.10;99.90;;;;;;5086311;28;20168;-74
2022/09/22 08:20:12;;;;;;;4.50;3.20;;;12.20;99.90;;;;;;5092367;28;20168;-77
2022/09/22 08:22:38;;;;;;;3.78;2.90;;;12.30;99.90;;;;;;5086856;28;20210;-78
2022/09/22 08:25:04;;;;;;;4.47;2.95;;;12.40;99.90;;;;;;5069266;28;20173;-75
2022/09/22 08:27:35;;;;;;;4.35;3.00;;;12.50;99.90;;;;;;5085006;28;20182;-76
2022/09/22 08:30:01;;;;;;;5.20;3.00;;;12.60;99.90;;;;;;5078308;28;20200;-76
2022/09/22 08:32:29;;;;;;;4.05;3.03;;;12.70;99.90;;;;;;5080885;28;20191;-76
2022/09/22 08:34:56;;;;;;;4.70;3.17;;;12.80;99.90;;;;;;5081085;28;20192;-75
2022/09/22 08:37:23;;;;;;;3.58;2.97;;;12.90;99.90;;;;;;5068848;28;20188;-76
2022/09/22 08:39:51;;;;;;;3.80;2.80;;;13.00;99.90;;;;;;5072740;28;20179;-77
2022/09/22 08:42:22;;;;;;;3.03;2.67;;;13.10;99.90;;;;;;5083897;28;20193;-76
2022/09/22 08:45:15;;;;;;;3.38;2.80;;;13.20;99.90;;;;;;5071714;28;20210;-74
2022/09/22 08:53:51;;;;;;;2.38;1.95;;;13.60;99.90;;;;;;5069016;28;20231;-77
2022/09/22 08:56:28;;;;;;;3.33;2.10;;;13.70;99.90;;;;;;5076644;28;20208;-75
2022/09/22 08:59:08;;;;;;;4.15;2.40;;;13.80;99.90;;;;;;5077758;28;20215;-75
2022/09/22 09:01:55;;;;;;;1.73;1.60;;;14.00;99.90;;;;;;5081069;28;20160;-77
2022/09/22 09:04:55;;;;;;;2.90;1.98;;;14.10;99.90;;;;;;5084244;28;20292;-75
2022/09/22 09:08:00;;;;;;;1.95;1.70;;;14.20;99.90;;;;;;5087603;28;20190;-76
2022/09/22 09:10:47;;;;;;;1.85;1.58;;;14.40;99.90;;;;;;5084214;28;20348;-76
2022/09/22 09:13:15;;;;;;;2.13;1.70;;;14.50;99.90;;;;;;5076711;28;20177;-75
2022/09/22 09:16:21;;;;;;;2.28;1.80;;;14.70;99.90;;;;;;5084341;28;20270;-76
2022/09/22 09:19:09;;;;;;;3.67;1.67;;;14.80;99.90;;;;;;5087818;28;20172;-76
2022/09/22 09:21:43;;;;;;;2.22;1.80;;;15.00;99.90;;;;;;5089675;28;20195;-75
2022/09/22 09:24:18;;;;;;;2.42;1.65;;;15.20;99.90;;;;;;5082103;28;20187;-75
2022/09/22 09:26:48;;;;;;;2.65;1.70;;;15.30;99.90;;;;;;5088073;28;20209;-76
2022/09/22 09:29:20;;;;;;;2.88;1.80;;;15.40;99.90;;;;;;5085974;28;20186;-73
2022/09/22 09:31:54;;;;;;;2.80;1.80;;;15.50;99.90;;;;;;5072826;28;20180;-74
2022/09/22 09:34:29;;;;;;;1.92;1.40;;;15.70;99.90;;;;;;5073672;28;20186;-76
2022/09/22 09:37:10;;;;;;;2.45;1.95;;;16.10;99.90;;;;;;5086125;28;20179;-70
2022/09/22 09:39:39;;;;;;;2.20;1.70;;;16.80;99.90;;;;;;5079291;28;20236;-75
2022/09/22 09:42:21;;;;;;;2.30;1.73;;;17.60;99.90;;;;;;5094304;28;20172;-74
2022/09/22 09:44:52;;;;;;;2.10;1.60;;;18.40;99.90;;;;;;5093962;28;20188;-74
2022/09/22 09:47:31;;;;;;;1.98;1.77;;;19.30;99.90;;;;;;5095834;28;20183;-74
2022/09/22 09:49:57;;;;;;;2.17;1.52;;;19.90;99.90;;;;;;5071125;28;20230;-76
2022/09/22 09:52:28;;;;;;;1.80;1.13;;;20.50;99.90;;;;;;5075750;28;20180;-75
2022/09/22 09:54:54;;;;;;;2.25;1.40;;;20.90;99.90;;;;;;5089351;28;20289;-73
2022/09/22 09:57:21;;;;;;;2.33;1.40;;;21.40;99.90;;;;;;5087666;28;20176;-75
2022/09/22 10:00:31;;;;;;;2.22;1.30;;;21.80;99.90;;;;;;5081991;28;20196;-76
2022/09/22 10:03:14;;;;;;;1.70;1.40;;;22.20;99.90;;;;;;5087765;28;20203;-75
2022/09/22 10:05:42;;;;;;;1.60;1.20;;;22.70;99.90;;;;;;5098109;28;20172;-75
2022/09/22 10:08:18;;;;;;;1.42;1.17;;;23.10;99.90;;;;;;5091211;28;20204;-73
2022/09/22 10:10:45;;;;;;;1.63;1.05;;;23.40;99.90;;;;;;5085696;28;20164;-75
2022/09/22 10:13:21;;;;;;;2.05;1.10;;;23.60;99.90;;;;;;5087761;28;20290;-76
2022/09/22 10:16:01;;;;;;;1.85;1.05;;;23.80;99.90;;;;;;5069396;28;20224;-75
2022/09/22 10:18:34;;;;;;;2.00;1.30;;;24.00;99.90;;;;;;5078385;28;20279;-77
2022/09/22 10:21:08;;;;;;;1.85;1.05;;;24.00;99.90;;;;;;5088367;28;20208;-77
2022/09/22 10:23:34;;;;;;;1.85;1.13;;;24.00;99.90;;;;;;5083949;28;20168;-75
2022/09/22 10:26:32;;;;;;;1.30;1.13;;;23.90;99.90;;;;;;5084866;28;20217;-76
2022/09/22 10:29:18;;;;;;;0.85;0.80;;;24.00;99.90;;;;;;5036358;28;20187;-77
2022/09/22 10:32:02;;;;;;;1.40;0.90;;;24.00;99.90;;;;;;5089380;28;20172;-71
2022/09/22 10:34:45;;;;;;;1.35;1.10;;;24.00;99.90;;;;;;5089872;28;20216;-78
2022/09/22 10:37:15;;;;;;;1.38;1.00;;;24.20;99.90;;;;;;5089129;28;20222;-75
2022/09/22 10:40:20;;;;;;;1.15;0.95;;;24.30;99.90;;;;;;5088033;28;20156;-74
2022/09/22 10:42:47;;;;;;;1.05;0.70;;;24.40;99.90;;;;;;5077020;28;20196;-76
2022/09/22 10:45:18;;;;;;;1.55;0.90;;;24.50;99.90;;;;;;5071139;28;20196;-74
2022/09/22 10:48:09;;;;;;;1.33;0.93;;;24.70;99.90;;;;;;5088430;28;20205;-76
2022/09/22 10:50:55;;;;;;;1.40;1.00;;;24.70;99.90;;;;;;5079211;28;20176;-71
2022/09/22 10:53:34;;;;;;;1.20;1.00;;;24.60;99.90;;;;;;5087257;28;20199;-76
2022/09/22 10:56:22;;;;;;;1.10;1.00;;;24.50;99.90;;;;;;5094508;28;20274;-76
2022/09/22 10:58:53;;;;;;;1.48;0.90;;;24.40;99.90;;;;;;5092251;28;20227;-77
2022/09/22 11:01:34;;;;;;;0.65;0.63;;;24.30;99.90;;;;;;5087331;28;20179;-76
2022/09/22 11:04:13;;;;;;;1.42;0.80;;;24.20;99.90;;;;;;5068976;28;20349;-78
2022/09/22 11:13:25;;;;;;;1.65;0.90;;;23.70;93.40;;;;;;5107298;28;20256;-78
2022/09/22 11:16:21;;;;;;;0.93;0.80;;;23.60;97.40;;;;;;5085502;28;20211;-78
2022/09/22 11:18:51;;;;;;;1.10;0.90;;;23.60;99.90;;;;;;5072730;28;20169;-76
2022/09/22 11:21:30;;;;;;;1.00;0.70;;;23.60;99.90;;;;;;5078331;28;20196;-76
2022/09/22 11:24:11;;;;;;;1.77;0.93;;;23.60;99.90;;;;;;5107858;28;20286;-75
2022/09/22 11:26:47;;;;;;;1.90;1.00;;;23.60;99.90;;;;;;5109475;28;20183;-77
2022/09/22 11:29:25;;;;;;;1.25;0.90;;;23.50;99.90;;;;;;5090022;28;20176;-70
2022/09/22 11:32:05;;;;;;;1.33;0.90;;;23.60;99.90;;;;;;5092912;28;20227;-73
2022/09/22 11:35:07;;;;;;;2.03;0.77;;;23.60;99.90;;;;;;5088936;28;20237;-76
2022/09/22 11:37:53;;;;;;;1.20;0.90;;;23.60;99.10;;;;;;5083287;28;20191;-77
2022/09/22 11:40:53;;;;;;;1.10;0.90;;;23.60;99.90;;;;;;5065802;28;20382;-77
2022/09/22 11:43:28;;;;;;;1.08;0.80;;;23.60;99.20;;;;;;5082485;28;20191;-78
2022/09/22 11:46:28;;;;;;;0.80;0.68;;;23.40;99.70;;;;;;5086049;28;20231;-78
2022/09/22 11:49:15;;;;;;;1.23;0.90;;;23.30;96.70;;;;;;5059220;28;20168;-75
2022/09/22 11:52:06;;;;;;;1.52;0.90;;;23.20;99.80;;;;;;5091910;28;20152;-72
2022/09/22 11:54:49;;;;;;;1.10;0.90;;;23.20;97.00;;;;;;5085954;28;20203;-77
2022/09/22 11:57:22;;;;;;;1.00;0.80;;;23.10;98.80;;;;;;5070182;28;20168;-75
2022/09/22 12:00:00;;;;;;;0.75;0.60;;;23.10;97.10;;;;;;5085382;28;20178;-76
2022/09/22 12:02:46;;;;;;;0.95;0.75;;;23.10;96.40;;;;;;5083687;28;20202;-79
2022/09/22 12:05:20;;;;;;;0.95;0.60;;;23.10;99.90;;;;;;5073168;28;20275;-74
2022/09/22 12:08:07;;;;;;;0.77;0.60;;;23.00;98.20;;;;;;5088212;28;20266;-73
2022/09/22 12:10:35;;;;;;;0.82;0.70;;;23.00;98.70;;;;;;5090951;28;20160;-72
2022/09/22 12:13:04;;;;;;;1.13;0.90;;;23.00;99.90;;;;;;5087655;28;20203;-76
2022/09/22 12:15:57;;;;;;;0.95;0.65;;;23.00;99.90;;;;;;5086048;28;20207;-74
2022/09/22 12:18:31;;;;;;;0.70;0.68;;;23.10;99.70;;;;;;5075012;28;20196;-77
2022/09/22 12:21:17;;;;;;;0.75;0.68;;;23.30;98.70;;;;;;5093639;28;20196;-75
2022/09/22 12:23:49;;;;;;;0.63;0.63;;;23.30;98.30;;;;;;5092223;28;20169;-75
2022/09/22 12:26:35;;;;;;;0.85;0.70;;;23.40;97.20;;;;;;5085468;28;20175;-76
2022/09/22 12:29:26;;;;;;;1.08;0.70;;;23.40;95.20;;;;;;5088051;28;20164;-76
2022/09/22 12:31:57;;;;;;;1.35;0.60;;;23.40;95.90;;;;;;5091364;28;20245;-76
2022/09/22 12:34:36;;;;;;;1.23;0.60;;;23.50;98.30;;;;;;5094025;28;20191;-74
2022/09/22 12:37:32;;;;;;;0.90;0.63;;;23.50;96.50;;;;;;5088353;28;20187;-76
2022/09/22 12:40:17;;;;;;;0.50;0.50;;;23.50;92.20;;;;;;5099151;28;20180;-74
2022/09/22 12:42:48;;;;;;;0.90;0.52;;;23.40;94.40;;;;;;5097597;28;20164;-69
2022/09/22 12:45:20;;;;;;;1.55;0.80;;;23.30;95.30;;;;;;5072044;28;20161;-74
2022/09/22 12:47:54;;;;;;;1.42;0.60;;;23.30;93.70;;;;;;5084079;28;20211;-78
2022/09/22 12:50:24;;;;;;;0.82;0.77;;;23.30;94.60;;;;;;5091621;28;20186;-75
2022/09/22 12:52:50;;;;;;;0.65;0.60;;;23.20;94.70;;;;;;5089457;28;20188;-76
2022/09/22 12:55:28;;;;;;;1.48;0.50;;;23.20;96.30;;;;;;5089648;28;20207;-75
2022/09/22 12:57:56;;;;;;;0.55;0.55;;;23.30;96.50;;;;;;5086781;28;20156;-74
2022/09/22 13:00:28;;;;;;;1.27;0.80;;;23.20;95.00;;;;;;5088667;28;20172;-74
2022/09/22 13:02:55;;;;;;;1.20;0.90;;;23.30;94.70;;;;;;5083320;28;20237;-78
2022/09/22 13:05:24;;;;;;;0.93;0.50;;;23.20;94.40;;;;;;5088070;28;20176;-72
2022/09/22 13:07:52;;;;;;;0.60;0.50;;;23.30;92.20;;;;;;5085385;28;20188;-77
2022/09/22 13:10:23;;;;;;;0.60;0.50;;;23.30;96.00;;;;;;5091865;28;20200;-74
2022/09/22 13:13:01;;;;;;;0.80;0.60;;;23.30;94.50;;;;;;5088848;28;20161;-75
2022/09/22 13:15:50;;;;;;;0.95;0.60;;;23.30;91.10;;;;;;5094501;28;20212;-74
2022/09/22 13:18:51;;;;;;;0.50;0.50;;;23.30;75.80;;;;;;5088077;28;20204;-77
2022/09/22 13:21:24;;;;;;;0.60;0.55;;;23.30;91.20;;;;;;5072302;28;20218;-73
2022/09/22 13:23:50;;;;;;;0.40;0.40;;;23.30;95.00;;;;;;5089490;28;20151;-75
2022/09/22 13:26:21;;;;;;;0.63;0.50;;;23.40;96.30;;;;;;5088496;28;20243;-74
2022/09/22 13:29:09;;;;;;;0.57;0.47;;;23.50;95.70;;;;;;5088133;28;20172;-76
2022/09/22 13:31:36;;;;;;;0.65;0.60;;;23.60;94.20;;;;;;5093892;28;20195;-74
2022/09/22 13:34:34;;;;;;;0.95;0.70;;;23.70;95.70;;;;;;5092148;28;20172;-75
2022/09/22 13:37:09;;;;;;;0.88;0.63;;;23.70;91.10;;;;;;5092530;28;20188;-76